createdAt,value
2023-05-19T00:00:19.752Z,102913.56
2023-05-19T00:02:21.561Z,102905.66
2023-05-19T00:04:23.284Z,102903.88
2023-05-19T00:06:27.608Z,102906.47
2023-05-19T00:08:31.918Z,102901.19
2023-05-19T00:10:33.954Z,102900.25
2023-05-19T00:12:36.697Z,102901.03
2023-05-19T00:14:38.557Z,102898.38
2023-05-19T00:16:40.457Z,102902.75
2023-05-19T00:18:43.047Z,102898.34
2023-05-19T00:20:44.750Z,102894.78
2023-05-19T00:22:46.252Z,102893.00
2023-05-19T00:24:47.850Z,102902.59
2023-05-19T00:26:49.406Z,102898.16
2023-05-19T00:28:51.221Z,102895.47
2023-05-19T00:30:52.723Z,102887.50
2023-05-19T00:32:54.315Z,102893.63
2023-05-19T00:34:55.873Z,102903.25
2023-05-19T00:36:57.437Z,102899.69
2023-05-19T00:38:58.984Z,102893.50
2023-05-19T00:41:01.756Z,102894.38
2023-05-19T00:43:05.426Z,102894.38
2023-05-19T00:45:07.512Z,102892.59
2023-05-19T00:47:09.172Z,102898.72
2023-05-19T00:49:10.721Z,102905.63
2023-05-19T00:51:16.689Z,102898.47
2023-05-19T00:53:19.384Z,102892.25
2023-05-19T00:55:23.207Z,102895.75
2023-05-19T00:57:26.018Z,102900.97
2023-05-19T00:59:27.808Z,102891.31
2023-05-19T01:01:29.509Z,102898.31
2023-05-19T01:03:36.102Z,102887.78
2023-05-19T01:05:41.992Z,102889.53
2023-05-19T01:07:43.992Z,102899.16
2023-05-19T01:09:47.024Z,102894.78
2023-05-19T01:11:51.488Z,102892.97
2023-05-19T01:13:53.091Z,102904.34
2023-05-19T01:15:57.646Z,102892.91
2023-05-19T01:18:08.122Z,102895.53
2023-05-19T01:20:19.961Z,102893.72
2023-05-19T01:22:32.349Z,102899.84
2023-05-19T01:25:16.317Z,102900.66
2023-05-19T01:27:45.529Z,102899.72
2023-05-19T01:30:25.383Z,102895.28
2023-05-19T01:32:29.154Z,102889.09
2023-05-19T01:34:31.394Z,102897.91
2023-05-19T01:36:33.760Z,102894.38
2023-05-19T01:38:38.376Z,102889.97
2023-05-19T01:40:41.930Z,102893.47
2023-05-19T01:42:45.516Z,102889.94
2023-05-19T01:44:47.526Z,102891.59
2023-05-19T01:46:49.790Z,102881.00
2023-05-19T01:48:52.515Z,102885.38
2023-05-19T01:50:57.235Z,102895.88
2023-05-19T01:52:59.734Z,102885.34
2023-05-19T01:55:01.246Z,102894.13
2023-05-19T01:57:25.832Z,102888.00
2023-05-19T01:59:57.929Z,102893.25
2023-05-19T02:02:07.757Z,102893.25
2023-05-19T02:04:15.151Z,102890.59
2023-05-19T02:06:35.373Z,102890.56
2023-05-19T02:09:00.157Z,102887.94
2023-05-19T02:11:14.441Z,102891.44
2023-05-19T02:13:21.348Z,102894.00
2023-05-19T02:15:27.098Z,102889.63
2023-05-19T02:17:33.062Z,102886.13
2023-05-19T02:19:38.525Z,102893.16
2023-05-19T02:21:40.049Z,102892.25
2023-05-19T02:23:42.058Z,102889.59
2023-05-19T02:25:43.628Z,102891.34
2023-05-19T02:27:45.205Z,102889.59
2023-05-19T02:29:46.716Z,102889.59
2023-05-19T02:31:48.430Z,102893.97
2023-05-19T02:33:49.936Z,102892.19
2023-05-19T02:35:51.495Z,102889.56
2023-05-19T02:37:54.070Z,102888.66
2023-05-19T02:39:55.656Z,102890.38
2023-05-19T02:41:57.167Z,102889.47
2023-05-19T02:43:58.665Z,102885.09
2023-05-19T02:46:00.403Z,102884.19
2023-05-19T02:48:02.016Z,102887.69
2023-05-19T02:50:03.788Z,102889.44
2023-05-19T02:52:06.022Z,102885.00
2023-05-19T02:54:07.502Z,102881.47
2023-05-19T02:56:09.016Z,102877.97
2023-05-19T02:58:10.822Z,102877.03
2023-05-19T03:00:12.879Z,102879.69
2023-05-19T03:02:14.515Z,102880.53
2023-05-19T03:04:16.130Z,102882.25
2023-05-19T03:06:18.159Z,102881.34
2023-05-19T03:08:20.156Z,102878.69
2023-05-19T03:10:21.733Z,102885.63
2023-05-19T03:12:23.267Z,102882.97
2023-05-19T03:14:24.824Z,102879.44
2023-05-19T03:16:28.129Z,102869.75
2023-05-19T03:18:29.800Z,102869.69
2023-05-19T03:20:31.575Z,102882.81
2023-05-19T03:22:33.667Z,102881.03
2023-05-19T03:24:35.206Z,102874.84
2023-05-19T03:26:36.733Z,102872.19
2023-05-19T03:28:38.228Z,102872.13
2023-05-19T03:30:39.735Z,102875.63
2023-05-19T03:32:41.715Z,102874.69
2023-05-19T03:34:43.317Z,102876.41
2023-05-19T03:36:45.092Z,102875.47
2023-05-19T03:38:46.614Z,102872.84
2023-05-19T03:40:48.096Z,102869.38
2023-05-19T03:42:49.709Z,102875.47
2023-05-19T03:44:51.596Z,102883.31
2023-05-19T03:46:53.106Z,102878.94
2023-05-19T03:48:54.604Z,102887.69
2023-05-19T03:50:56.108Z,102879.81
2023-05-19T03:52:57.614Z,102876.34
2023-05-19T03:54:59.093Z,102879.84
2023-05-19T03:57:00.631Z,102883.38
2023-05-19T03:59:02.129Z,102878.13
2023-05-19T04:01:03.675Z,102887.75
2023-05-19T04:03:05.218Z,102890.38
2023-05-19T04:05:08.585Z,102886.91
2023-05-19T04:07:10.077Z,102885.19
2023-05-19T04:09:13.527Z,102885.22
2023-05-19T04:11:15.325Z,102884.38
2023-05-19T04:13:16.830Z,102881.75
2023-05-19T04:15:18.357Z,102878.28
2023-05-19T04:17:19.897Z,102886.19
2023-05-19T04:19:21.414Z,102889.69
2023-05-19T04:21:23.092Z,102884.47
2023-05-19T04:23:24.675Z,102891.53
2023-05-19T04:25:28.141Z,102891.56
2023-05-19T04:27:31.933Z,102888.09
2023-05-19T04:29:33.737Z,102891.66
2023-05-19T04:31:36.037Z,102886.44
2023-05-19T04:33:38.021Z,102887.34
2023-05-19T04:35:39.791Z,102886.50
2023-05-19T04:37:41.273Z,102882.19
2023-05-19T04:39:44.272Z,102878.75
2023-05-19T04:41:45.843Z,102882.34
2023-05-19T04:43:48.364Z,102879.75
2023-05-19T04:45:51.445Z,102882.47
2023-05-19T04:47:53.109Z,102882.56
2023-05-19T04:49:55.692Z,102880.91
2023-05-19T04:51:57.286Z,102887.19
2023-05-19T04:53:58.763Z,102892.56
2023-05-19T04:56:03.643Z,102887.41
2023-05-19T04:58:05.186Z,102886.59
2023-05-19T05:00:09.132Z,102881.41
2023-05-19T05:02:10.827Z,102887.69
2023-05-19T05:04:12.368Z,102885.22
2023-05-19T05:06:13.950Z,102893.31
2023-05-19T05:08:21.871Z,102891.75
2023-05-19T05:10:23.577Z,102890.19
2023-05-19T05:12:25.419Z,102892.13
2023-05-19T05:14:27.277Z,102885.22
2023-05-19T05:16:29.002Z,102896.75
2023-05-19T05:18:30.780Z,102894.25
2023-05-19T05:20:32.913Z,102896.16
2023-05-19T05:22:35.056Z,102892.75
2023-05-19T05:24:36.884Z,102893.72
2023-05-19T05:26:38.643Z,102893.81
2023-05-19T05:28:41.475Z,102900.03
2023-05-19T05:30:43.696Z,102890.38
2023-05-19T05:32:45.530Z,102893.91
2023-05-19T05:34:47.076Z,102893.09
2023-05-19T05:36:48.627Z,102893.13
2023-05-19T05:38:50.156Z,102886.16
2023-05-19T05:40:51.832Z,102885.31
2023-05-19T05:42:55.650Z,102889.75
2023-05-19T05:44:57.137Z,102888.94
2023-05-19T05:46:58.899Z,102887.22
2023-05-19T05:49:00.613Z,102885.53
2023-05-19T05:51:02.462Z,102889.09
2023-05-19T05:53:06.562Z,102890.03
2023-05-19T05:55:08.928Z,102890.13
2023-05-19T05:57:10.790Z,102892.78
2023-05-19T05:59:12.310Z,102896.34
2023-05-19T06:01:16.762Z,102884.09
2023-05-19T06:03:18.337Z,102891.19
2023-05-19T06:05:20.392Z,102889.47
2023-05-19T06:07:22.047Z,102885.09
2023-05-19T06:09:23.619Z,102886.00
2023-05-19T06:11:25.177Z,102893.09
2023-05-19T06:13:26.706Z,102889.59
2023-05-19T06:15:28.397Z,102894.91
2023-05-19T06:17:30.079Z,102889.63
2023-05-19T06:19:32.174Z,102887.88
2023-05-19T06:21:33.685Z,102881.75
2023-05-19T06:23:35.167Z,102878.25
2023-05-19T06:25:36.681Z,102880.88
2023-05-19T06:27:38.184Z,102886.19
2023-05-19T06:29:39.845Z,102883.53
2023-05-19T06:31:41.475Z,102876.47
2023-05-19T06:33:43.070Z,102881.78
2023-05-19T06:35:44.613Z,102880.91
2023-05-19T06:37:46.204Z,102888.00
2023-05-19T06:39:49.330Z,102887.09
2023-05-19T06:41:51.068Z,102880.91
2023-05-19T06:43:52.569Z,102880.03
2023-05-19T06:45:54.088Z,102885.31
2023-05-19T06:47:58.264Z,102881.78
2023-05-19T06:49:59.828Z,102887.97
2023-05-19T06:52:01.387Z,102886.19
2023-05-19T06:54:03.009Z,102892.34
2023-05-19T06:56:04.820Z,102886.16
2023-05-19T06:58:06.474Z,102895.81
2023-05-19T07:00:17.032Z,102886.06
2023-05-19T07:02:19.919Z,102896.69
2023-05-19T07:04:21.441Z,102898.47
2023-05-19T07:06:23.102Z,102899.31
2023-05-19T07:08:24.902Z,102896.63
2023-05-19T07:10:26.469Z,102899.25
2023-05-19T07:12:27.980Z,102890.34
2023-05-19T07:14:29.574Z,102894.72
2023-05-19T07:16:31.192Z,102887.63
2023-05-19T07:18:32.845Z,102890.22
2023-05-19T07:20:34.545Z,102886.69
2023-05-19T07:22:36.923Z,102886.66
2023-05-19T07:24:38.430Z,102885.75
2023-05-19T07:26:41.397Z,102892.75
2023-05-19T07:28:43.491Z,102890.09
2023-05-19T07:30:45.114Z,102885.63
2023-05-19T07:32:46.806Z,102890.00
2023-05-19T07:34:48.422Z,102881.13
2023-05-19T07:36:51.459Z,102881.94
2023-05-19T07:38:53.029Z,102873.03
2023-05-19T07:40:54.638Z,102873.06
2023-05-19T07:42:56.459Z,102886.25
2023-05-19T07:44:57.996Z,102880.88
2023-05-19T07:46:59.557Z,102880.81
2023-05-19T07:49:01.072Z,102876.31
2023-05-19T07:51:02.826Z,102884.19
2023-05-19T07:53:04.329Z,102875.25
2023-05-19T07:55:06.223Z,102875.16
2023-05-19T07:57:07.725Z,102875.13
2023-05-19T07:59:09.261Z,102868.88
2023-05-19T08:01:10.819Z,102870.59
2023-05-19T08:03:13.353Z,102867.00
2023-05-19T08:05:15.142Z,102871.38
2023-05-19T08:07:16.649Z,102870.41
2023-05-19T08:09:18.767Z,102868.56
2023-05-19T08:11:21.407Z,102872.06
2023-05-19T08:13:22.903Z,102861.34
2023-05-19T08:15:25.328Z,102865.72
2023-05-19T08:17:26.973Z,102863.84
2023-05-19T08:19:28.625Z,102863.78
2023-05-19T08:21:31.309Z,102862.84
2023-05-19T08:23:33.167Z,102857.50
2023-05-19T08:25:34.668Z,102859.16
2023-05-19T08:27:36.311Z,102863.53
2023-05-19T08:29:38.247Z,102860.81
2023-05-19T08:31:39.869Z,102859.91
2023-05-19T08:33:41.358Z,102859.00
2023-05-19T08:35:43.460Z,102860.72
2023-05-19T08:37:44.971Z,102855.34
2023-05-19T08:39:46.735Z,102854.31
2023-05-19T08:41:48.285Z,102855.03
2023-05-19T08:43:50.193Z,102856.69
2023-05-19T08:45:54.148Z,102853.91
2023-05-19T08:47:56.036Z,102853.78
2023-05-19T08:50:10.948Z,102843.03
2023-05-19T08:52:42.366Z,102833.22
2023-05-19T08:54:50.897Z,102823.41
2023-05-19T08:56:52.572Z,102832.09
2023-05-19T08:58:54.913Z,102836.47
2023-05-19T09:00:57.770Z,102827.53
2023-05-19T09:05:08.837Z,102830.88
2023-05-19T09:07:10.905Z,102822.78
2023-05-19T09:09:12.554Z,102815.59
2023-05-19T09:19:30.996Z,102809.28
2023-05-19T09:21:33.302Z,102816.25
2023-05-19T09:23:34.869Z,102809.84
2023-05-19T09:42:37.802Z,102806.03
2023-05-19T09:44:39.349Z,102803.25
2023-05-19T09:46:51.255Z,102803.91
2023-05-19T09:48:57.632Z,102792.91
2023-05-19T09:51:01.035Z,102791.75
2023-05-19T09:53:04.055Z,102784.31
2023-05-19T09:55:09.156Z,102794.66
2023-05-19T09:57:10.709Z,102785.41
2023-05-19T09:59:16.065Z,102792.19
2023-05-19T10:01:18.139Z,102791.88
2023-05-19T10:03:20.307Z,102788.84
2023-05-19T10:05:21.994Z,102787.75
2023-05-19T10:07:24.612Z,102785.00
2023-05-19T10:09:27.880Z,102775.22
2023-05-19T10:11:30.710Z,102773.09
2023-05-19T10:13:35.814Z,102766.22
2023-05-19T10:15:50.027Z,102759.34
2023-05-19T10:17:59.515Z,102759.25
2023-05-19T10:20:01.211Z,102762.13
2023-05-19T10:22:03.147Z,102755.84
2023-05-19T10:24:04.765Z,102764.78
2023-05-19T10:26:07.868Z,102763.03
2023-05-19T10:28:13.768Z,102749.75
2023-05-19T10:30:20.617Z,102751.81
2023-05-19T10:32:26.759Z,102752.16
2023-05-19T10:34:54.278Z,102760.03
2023-05-19T10:37:10.301Z,102752.00
2023-05-19T10:39:22.059Z,102746.22
2023-05-19T10:41:47.795Z,102749.09
2023-05-19T10:44:04.644Z,102749.41
2023-05-19T10:46:06.426Z,102762.16
2023-05-19T10:48:12.411Z,102745.88
2023-05-19T10:50:14.094Z,102744.97
2023-05-19T10:52:23.171Z,102741.06
2023-05-19T10:54:46.533Z,102744.59
2023-05-19T10:56:48.554Z,102745.31
2023-05-19T10:58:50.402Z,102733.84
2023-05-19T11:01:00.992Z,102734.88
2023-05-19T11:03:16.674Z,102727.56
2023-05-19T11:05:19.470Z,102729.38
2023-05-19T11:07:22.332Z,102722.91
2023-05-19T11:09:37.886Z,102722.53
2023-05-19T11:12:03.764Z,102716.81
2023-05-19T11:14:05.445Z,102718.97
2023-05-19T11:16:08.808Z,102720.19
2023-05-19T11:18:11.698Z,102718.06
2023-05-19T11:20:26.413Z,102725.91
2023-05-19T11:22:28.446Z,102721.28
2023-05-19T11:24:40.875Z,102729.34
2023-05-19T11:26:43.448Z,102727.13
2023-05-19T11:28:47.541Z,102726.31
2023-05-19T11:30:52.292Z,102730.28
2023-05-19T11:32:54.506Z,102716.75
2023-05-19T11:34:57.131Z,102723.66
2023-05-19T11:36:59.399Z,102711.94
2023-05-19T11:39:02.519Z,102709.81
2023-05-19T11:41:04.681Z,102719.34
2023-05-19T11:43:06.270Z,102720.22
2023-05-19T11:45:08.512Z,102708.19
2023-05-19T11:47:10.099Z,102704.72
2023-05-19T11:49:11.747Z,102710.66
2023-05-19T11:51:13.359Z,102710.88
2023-05-19T11:53:16.785Z,102705.66
2023-05-19T11:55:22.042Z,102708.84
2023-05-19T11:57:23.616Z,102714.88
2023-05-19T11:59:33.462Z,102709.25
2023-05-19T12:01:37.150Z,102708.84
2023-05-19T12:03:38.937Z,102704.22
2023-05-19T12:05:46.789Z,102703.59
2023-05-19T12:07:52.184Z,102702.09
2023-05-19T12:09:56.584Z,102703.63
2023-05-19T12:11:58.428Z,102704.03
2023-05-19T12:14:00.847Z,102700.78
2023-05-19T12:16:04.439Z,102705.69
2023-05-19T12:18:06.578Z,102702.13
2023-05-19T12:20:09.436Z,102708.72
2023-05-19T12:22:12.020Z,102703.06
2023-05-19T12:24:13.961Z,102707.03
2023-05-19T12:26:15.621Z,102705.28
2023-05-19T12:28:17.173Z,102694.19
2023-05-19T12:30:24.603Z,102693.59
2023-05-19T12:32:27.785Z,102681.41
2023-05-19T12:34:30.173Z,102682.91
2023-05-19T12:36:32.529Z,102685.53
2023-05-19T12:38:37.332Z,102674.41
2023-05-19T12:40:42.436Z,102683.88
2023-05-19T12:42:45.379Z,102679.00
2023-05-19T12:44:52.593Z,102684.97
2023-05-19T12:46:54.367Z,102684.63
2023-05-19T12:49:00.766Z,102678.94
2023-05-19T12:51:02.362Z,102679.94
2023-05-19T12:53:08.727Z,102679.66
2023-05-19T12:55:14.386Z,102680.75
2023-05-19T12:57:20.946Z,102681.03
2023-05-19T12:59:37.961Z,102676.72
2023-05-19T13:01:40.478Z,102673.50
2023-05-19T13:03:42.899Z,102673.22
2023-05-19T13:05:46.899Z,102676.78
2023-05-19T13:07:56.659Z,102674.91
2023-05-19T13:09:58.681Z,102673.38
2023-05-19T13:12:00.283Z,102668.88
2023-05-19T13:14:01.780Z,102669.59
2023-05-19T13:16:03.476Z,102655.13
2023-05-19T13:18:08.589Z,102655.97
2023-05-19T13:20:10.642Z,102656.25
2023-05-19T13:22:12.156Z,102647.63
2023-05-19T13:24:14.169Z,102653.28
2023-05-19T13:26:15.695Z,102662.13
2023-05-19T13:28:17.226Z,102657.03
2023-05-19T13:30:19.108Z,102661.22
2023-05-19T13:32:20.672Z,102650.94
2023-05-19T13:34:22.190Z,102647.47
2023-05-19T13:36:23.790Z,102633.16
2023-05-19T13:38:25.314Z,102643.03
2023-05-19T13:40:28.196Z,102638.19
2023-05-19T13:42:29.755Z,102637.78
2023-05-19T13:44:32.620Z,102646.28
2023-05-19T13:46:44.832Z,102639.69
2023-05-19T13:48:48.016Z,102629.66
2023-05-19T13:50:50.913Z,102632.41
2023-05-19T13:52:52.569Z,102630.22
2023-05-19T13:54:57.347Z,102630.63
2023-05-19T13:56:59.163Z,102632.69
2023-05-19T13:59:00.786Z,102624.22
2023-05-19T14:01:02.289Z,102624.22
2023-05-19T14:03:03.904Z,102633.84
2023-05-19T14:05:06.961Z,102635.78
2023-05-19T14:07:09.663Z,102634.56
2023-05-19T14:09:11.178Z,102632.31
2023-05-19T14:11:21.904Z,102624.72
2023-05-19T14:15:28.772Z,102628.34
2023-05-19T14:17:30.397Z,102624.84
2023-05-19T14:19:32.030Z,102627.25
2023-05-19T14:21:34.032Z,102626.47
2023-05-19T14:23:35.572Z,102619.41
2023-05-19T14:25:37.197Z,102618.72
2023-05-19T14:27:39.973Z,102624.84
2023-05-19T14:29:42.178Z,102613.44
2023-05-19T14:31:43.876Z,102612.56
2023-05-19T14:33:45.527Z,102621.66
2023-05-19T14:35:47.094Z,102624.22
2023-05-19T14:37:48.578Z,102621.34
2023-05-19T14:39:50.091Z,102622.16
2023-05-19T14:41:52.954Z,102619.34
2023-05-19T14:43:54.490Z,102615.53
2023-05-19T14:45:56.830Z,102616.34
2023-05-19T14:47:58.474Z,102613.84
2023-05-19T14:50:00.173Z,102612.91
2023-05-19T14:52:01.701Z,102628.22
2023-05-19T14:54:03.377Z,102618.72
2023-05-19T14:56:06.509Z,102623.75
2023-05-19T14:58:16.235Z,102625.84
2023-05-19T15:00:28.388Z,102620.88
2023-05-19T15:02:30.187Z,102618.44
2023-05-19T15:04:31.905Z,102621.19
2023-05-19T15:06:33.521Z,102618.63
2023-05-19T15:08:35.185Z,102623.88
2023-05-19T15:10:36.766Z,102621.38
2023-05-19T15:12:38.322Z,102624.16
2023-05-19T15:14:39.875Z,102622.44
2023-05-19T15:16:41.656Z,102619.13
2023-05-19T15:18:44.174Z,102611.13
2023-05-19T15:20:46.514Z,102606.84
2023-05-19T15:22:48.767Z,102603.22
2023-05-19T15:24:50.413Z,102605.59
2023-05-19T15:26:52.439Z,102598.78
2023-05-19T15:28:53.968Z,102594.88
2023-05-19T15:30:55.581Z,102598.81
2023-05-19T15:32:57.147Z,102597.00
2023-05-19T15:34:58.710Z,102597.16
2023-05-19T15:37:00.379Z,102593.88
2023-05-19T15:39:03.570Z,102590.50
2023-05-19T15:41:07.731Z,102590.63
2023-05-19T15:43:09.226Z,102592.50
2023-05-19T15:45:10.774Z,102595.25
2023-05-19T15:47:12.366Z,102603.28
2023-05-19T15:49:13.924Z,102595.13
2023-05-19T15:51:16.094Z,102602.34
2023-05-19T15:53:18.166Z,102601.47
2023-05-19T15:55:20.465Z,102607.72
2023-05-19T15:57:22.043Z,102606.59
2023-05-19T15:59:23.585Z,102600.28
2023-05-19T16:01:26.334Z,102593.19
2023-05-19T16:03:28.016Z,102602.91
2023-05-19T16:05:29.673Z,102601.16
2023-05-19T16:07:31.144Z,102594.91
2023-05-19T16:09:32.750Z,102594.19
2023-05-19T16:11:34.306Z,102583.50
2023-05-19T16:13:35.974Z,102596.25
2023-05-19T16:15:37.559Z,102596.72
2023-05-19T16:17:39.124Z,102591.81
2023-05-19T16:19:40.842Z,102592.06
2023-05-19T16:21:42.385Z,102586.06
2023-05-19T16:23:43.896Z,102588.69
2023-05-19T16:25:45.459Z,102582.84
2023-05-19T16:27:46.964Z,102582.50
2023-05-19T16:29:48.537Z,102576.66
2023-05-19T16:31:50.084Z,102565.69
2023-05-19T16:33:51.603Z,102570.97
2023-05-19T16:35:53.230Z,102571.66
2023-05-19T16:37:55.051Z,102567.09
2023-05-19T16:39:56.714Z,102572.59
2023-05-19T16:41:58.296Z,102576.09
2023-05-19T16:44:00.012Z,102579.78
2023-05-19T16:46:04.032Z,102575.47
2023-05-19T16:48:05.983Z,102572.09
2023-05-19T16:50:07.888Z,102573.28
2023-05-19T16:52:10.411Z,102577.91
2023-05-19T16:54:11.908Z,102581.75
2023-05-19T16:56:13.475Z,102582.84
2023-05-19T16:58:15.105Z,102583.97
2023-05-19T17:00:16.798Z,102584.16
2023-05-19T17:02:18.579Z,102585.97
2023-05-19T17:04:20.136Z,102592.31
2023-05-19T17:06:21.803Z,102593.41
2023-05-19T17:08:23.412Z,102594.28
2023-05-19T17:10:24.956Z,102586.38
2023-05-19T17:12:26.550Z,102582.94
2023-05-19T17:14:28.114Z,102576.13
2023-05-19T17:16:29.648Z,102584.22
2023-05-19T17:18:31.452Z,102581.63
2023-05-19T17:20:33.307Z,102582.59
2023-05-19T17:22:34.944Z,102583.69
2023-05-19T17:24:36.484Z,102582.88
2023-05-19T17:26:37.995Z,102587.59
2023-05-19T17:28:39.563Z,102586.78
2023-05-19T17:30:41.369Z,102584.16
2023-05-19T17:32:43.046Z,102579.78
2023-05-19T17:34:44.598Z,102586.25
2023-05-19T17:36:46.274Z,102583.63
2023-05-19T17:38:47.755Z,102587.25
2023-05-19T17:40:49.247Z,102582.88
2023-05-19T17:42:50.733Z,102585.72
2023-05-19T17:44:52.266Z,102587.34
2023-05-19T17:46:53.869Z,102590.56
2023-05-19T17:48:55.560Z,102588.66
2023-05-19T17:50:57.726Z,102587.94
2023-05-19T17:52:59.534Z,102596.31
2023-05-19T17:55:01.318Z,102584.09
2023-05-19T17:57:07.661Z,102590.38
2023-05-19T17:59:09.645Z,102595.78
2023-05-19T18:01:11.272Z,102591.38
2023-05-19T18:03:13.224Z,102590.72
2023-05-19T18:05:15.404Z,102589.09
2023-05-19T18:07:18.022Z,102592.84
2023-05-19T18:09:19.954Z,102600.06
2023-05-19T18:11:22.663Z,102599.41
2023-05-19T18:13:24.175Z,102590.75
2023-05-19T18:15:25.832Z,102591.78
2023-05-19T18:17:27.487Z,102596.31
2023-05-19T18:19:29.126Z,102593.03
2023-05-19T18:21:31.406Z,102596.00
2023-05-19T18:23:33.023Z,102598.84
2023-05-19T18:25:35.710Z,102598.06
2023-05-19T18:27:37.197Z,102607.16
2023-05-19T18:29:38.842Z,102602.06
2023-05-19T18:31:43.533Z,102604.84
2023-05-19T18:33:48.242Z,102606.84
2023-05-19T18:35:49.741Z,102610.59
2023-05-19T18:37:55.271Z,102612.44
2023-05-19T18:39:56.855Z,102621.44
2023-05-19T18:41:58.425Z,102618.13
2023-05-19T18:43:59.961Z,102618.31
2023-05-19T18:46:01.541Z,102613.16
2023-05-19T18:48:03.166Z,102619.47
2023-05-19T18:50:05.255Z,102620.53
2023-05-19T18:52:06.964Z,102621.47
2023-05-19T18:54:08.536Z,102624.31
2023-05-19T18:56:15.011Z,102625.44
2023-05-19T18:58:20.347Z,102620.19
2023-05-19T19:00:21.859Z,102626.53
2023-05-19T19:02:23.507Z,102615.28
2023-05-19T19:04:25.121Z,102622.47
2023-05-19T19:06:26.759Z,102626.09
2023-05-19T19:08:28.279Z,102624.31
2023-05-19T19:10:33.207Z,102628.94
2023-05-19T19:12:35.033Z,102632.63
2023-05-19T19:14:36.825Z,102629.09
2023-05-19T19:16:38.561Z,102623.91
2023-05-19T19:18:40.233Z,102633.75
2023-05-19T19:20:42.089Z,102634.81
2023-05-19T19:22:43.686Z,102633.09
2023-05-19T19:24:45.385Z,102644.75
2023-05-19T19:26:51.488Z,102652.00
2023-05-19T19:28:53.027Z,102652.00
2023-05-19T19:30:54.642Z,102645.84
2023-05-19T19:32:57.011Z,102653.88
2023-05-19T19:34:58.595Z,102653.06
2023-05-19T19:37:00.365Z,102657.50
2023-05-19T19:39:01.993Z,102651.31
2023-05-19T19:41:03.796Z,102653.13
2023-05-19T19:43:05.495Z,102662.06
2023-05-19T19:45:07.562Z,102661.31
2023-05-19T19:47:09.159Z,102663.09
2023-05-19T19:49:10.789Z,102664.03
2023-05-19T19:51:12.506Z,102664.09
2023-05-19T19:53:14.041Z,102668.53
2023-05-19T19:55:15.898Z,102665.91
2023-05-19T19:57:17.738Z,102666.00
2023-05-19T19:59:19.303Z,102668.69
2023-05-19T20:01:23.448Z,102677.63
2023-05-19T20:03:25.844Z,102682.09
2023-05-19T20:05:27.422Z,102685.69
2023-05-19T20:07:29.382Z,102689.28
2023-05-19T20:09:31.084Z,102690.25
2023-05-19T20:11:32.668Z,102686.78
2023-05-19T20:13:34.176Z,102695.66
2023-05-19T20:15:35.667Z,102692.13
2023-05-19T20:17:37.168Z,102686.00
2023-05-19T20:19:38.766Z,102688.69
2023-05-19T20:21:40.396Z,102686.09
2023-05-19T20:23:42.013Z,102685.22
2023-05-19T20:25:54.820Z,102686.19
2023-05-19T20:28:04.484Z,102686.28
2023-05-19T20:30:07.106Z,102689.06
2023-05-19T20:32:08.854Z,102685.56
2023-05-19T20:34:10.633Z,102688.28
2023-05-19T20:36:12.318Z,102686.59
2023-05-19T20:38:13.842Z,102698.13
2023-05-19T20:40:15.536Z,102693.75
2023-05-19T20:42:17.098Z,102688.53
2023-05-19T20:44:18.725Z,102688.63
2023-05-19T20:46:20.398Z,102686.91
2023-05-19T20:48:21.938Z,102686.94
2023-05-19T20:50:23.487Z,102693.25
2023-05-19T20:52:25.096Z,102689.75
2023-05-19T20:54:26.708Z,102696.09
2023-05-19T20:56:28.240Z,102691.69
2023-05-19T20:58:30.329Z,102695.34
2023-05-19T21:00:32.821Z,102694.53
2023-05-19T21:02:34.673Z,102688.38
2023-05-19T21:04:36.345Z,102696.47
2023-05-19T21:06:38.230Z,102692.09
2023-05-19T21:08:39.739Z,102694.78
2023-05-19T21:10:41.636Z,102699.28
2023-05-19T21:12:43.374Z,102687.88
2023-05-19T21:14:44.854Z,102697.69
2023-05-19T21:16:50.647Z,102693.31
2023-05-19T21:18:52.302Z,102692.44
2023-05-19T21:20:53.800Z,102688.94
2023-05-19T21:22:56.572Z,102687.22
2023-05-19T21:24:58.388Z,102686.34
2023-05-19T21:26:59.888Z,102692.63
2023-05-19T21:29:01.513Z,102689.13
2023-05-19T21:31:05.353Z,102693.63
2023-05-19T21:33:07.057Z,102692.84
2023-05-19T21:35:08.880Z,102694.63
2023-05-19T21:37:10.521Z,102699.06
2023-05-19T21:39:12.030Z,102700.06
2023-05-19T21:41:13.554Z,102702.75
2023-05-19T21:43:15.031Z,102700.16
2023-05-19T21:45:16.583Z,102700.16
2023-05-19T21:47:18.165Z,102701.03
2023-05-19T21:49:20.195Z,102698.44
2023-05-19T21:51:21.688Z,102703.78
2023-05-19T21:53:24.197Z,102706.47
2023-05-19T21:55:25.736Z,102708.31
2023-05-19T21:57:27.280Z,102705.69
2023-05-19T21:59:28.782Z,102711.06
2023-05-19T22:01:30.294Z,102711.97
2023-05-19T22:03:31.878Z,102712.84
2023-05-19T22:05:35.136Z,102711.09
2023-05-19T22:07:37.011Z,102713.78
2023-05-19T22:09:38.588Z,102716.47
2023-05-19T22:11:40.161Z,102705.91
2023-05-19T22:13:41.865Z,102707.72
2023-05-19T22:15:43.383Z,102708.63
2023-05-19T22:17:45.053Z,102706.03
2023-05-19T22:19:46.575Z,102711.41
2023-05-19T22:21:48.333Z,102706.09
2023-05-19T22:23:52.360Z,102707.91
2023-05-19T22:25:53.912Z,102706.13
2023-05-19T22:27:55.441Z,102711.47
2023-05-19T22:29:57.225Z,102710.63
2023-05-19T22:31:58.867Z,102713.28
2023-05-19T22:34:00.616Z,102716.00
2023-05-19T22:36:02.123Z,102718.66
2023-05-19T22:38:03.611Z,102715.13
2023-05-19T22:40:05.954Z,102718.66
2023-05-19T22:42:07.450Z,102715.13
2023-05-19T22:44:10.397Z,102711.59
2023-05-19T22:46:11.955Z,102710.72
2023-05-19T22:48:13.497Z,102716.06
2023-05-19T22:50:16.574Z,102714.31
2023-05-19T22:52:18.487Z,102716.97
2023-05-19T22:54:20.004Z,102721.38
2023-05-19T22:56:22.578Z,102715.25
2023-05-19T22:58:24.088Z,102719.69
2023-05-19T23:00:25.630Z,102715.28
2023-05-19T23:02:27.264Z,102713.53
2023-05-19T23:04:28.869Z,102710.94
2023-05-19T23:06:31.483Z,102712.72
2023-05-19T23:08:33.022Z,102709.19
2023-05-19T23:10:34.498Z,102708.31
2023-05-19T23:12:36.121Z,102714.50
2023-05-19T23:14:37.614Z,102721.63
2023-05-19T23:16:39.151Z,102711.03
2023-05-19T23:18:40.853Z,102714.59
2023-05-19T23:20:42.405Z,102714.59
2023-05-19T23:22:43.914Z,102711.09
2023-05-19T23:24:45.445Z,102714.63
2023-05-19T23:26:46.950Z,102708.47
2023-05-19T23:28:48.452Z,102719.13
2023-05-19T23:30:53.232Z,102712.09
2023-05-19T23:32:54.762Z,102717.41
2023-05-19T23:34:56.391Z,102715.66
2023-05-19T23:36:57.928Z,102712.19
2023-05-19T23:39:03.145Z,102714.81
2023-05-19T23:41:05.184Z,102718.41
2023-05-19T23:43:06.880Z,102720.25
2023-05-19T23:45:08.626Z,102715.84
2023-05-19T23:47:10.381Z,102724.75
2023-05-19T23:49:11.946Z,102724.78
2023-05-19T23:51:13.602Z,102722.16
2023-05-19T23:53:15.164Z,102726.59